Portada
METAR-TAF:

METAR-TAF

Aeropuertos :

Carcasona, Francia

latitud: 43-13N, longitud: 002-19E, altitud: 130 m

Observación

El informe se hizo hace 33 minutos, a las 08:30 UTC
Viento 7 kt del oeste, variando entre suroeste y noroeste
Temperatura 10°C
Humedad 57%
Presión 1031 hPa
Visibilidad 10 km o más
sin nubes por debajo de 1500 m y sin presencia de cumulonimbus.

METAR: LFMK 220830Z AUTO 27007KT 230V310 CAVOK 10/02 Q1031 NOSIG

Hora: 10:03 (09:03 UTC)

Pronóstico

El informe se hizo hace 1 hora y 3 minutos, a las 08:00 UTC
Pronóstico válido del 22 a las 09 UTC al 23 a las 09 UTC
Viento 12 kt del oeste
Visibilidad 10 km o más
sin nubes por debajo de 1500 m y sin presencia de cumulonimbus.
Evolucionando progresivamente
del 23 a las 00 UTC al 23 a las 02 UTC
Viento 3 kt con dirección variable

TAF: LFMK 220800Z 2209/2309 27012KT CAVOK BECMG 2300/2302 VRB03KT

Observaciones y pronósticos meteorológicos de más de 4000 aeropuertos (mensajes METAR y TAF).

Los puntos amarillos y rojos representan las estaciones disponibles.

Ponga el ratón en el punto deseado para ver el nombre de la estación.

Haga clic para ver las observaciones y los pronósticos meteorológicos.

Para cambiar el mapa : haga clic en los botones verdes con una cruz de color negro para hacer un zoom, en el botón verde con un guión para alejar o en las flechas verdes para mapas adyacentes.


METAR-TAF: